sensor_id;sensor_type;location;lat;lon;timestamp;temperature;humidity
19214;DHT22;9741;51.020;5.304;2022-07-29T00:00:39;18.40;53.60
19214;DHT22;9741;51.020;5.304;2022-07-29T00:03:06;18.40;54.50
19214;DHT22;9741;51.020;5.304;2022-07-29T00:05:33;18.30;55.10
19214;DHT22;9741;51.020;5.304;2022-07-29T00:08:00;18.30;55.80
19214;DHT22;9741;51.020;5.304;2022-07-29T00:10:27;18.20;56.30
19214;DHT22;9741;51.020;5.304;2022-07-29T00:12:54;18.20;56.90
19214;DHT22;9741;51.020;5.304;2022-07-29T00:15:21;18.10;57.50
19214;DHT22;9741;51.020;5.304;2022-07-29T00:17:50;18.00;57.60
19214;DHT22;9741;51.020;5.304;2022-07-29T00:20:17;18.00;58.10
19214;DHT22;9741;51.020;5.304;2022-07-29T00:22:44;18.00;58.40
19214;DHT22;9741;51.020;5.304;2022-07-29T00:25:12;18.00;58.80
19214;DHT22;9741;51.020;5.304;2022-07-29T00:27:39;18.00;59.10
19214;DHT22;9741;51.020;5.304;2022-07-29T00:30:07;18.00;59.40
19214;DHT22;9741;51.020;5.304;2022-07-29T00:32:34;17.90;59.60
19214;DHT22;9741;51.020;5.304;2022-07-29T00:35:03;17.90;59.80
19214;DHT22;9741;51.020;5.304;2022-07-29T00:37:48;17.90;60.00
19214;DHT22;9741;51.020;5.304;2022-07-29T00:40:15;17.90;60.20
19214;DHT22;9741;51.020;5.304;2022-07-29T00:42:43;17.90;60.30
19214;DHT22;9741;51.020;5.304;2022-07-29T00:45:11;17.90;60.40
19214;DHT22;9741;51.020;5.304;2022-07-29T00:47:38;17.90;60.40
19214;DHT22;9741;51.020;5.304;2022-07-29T00:50:08;17.70;60.60
19214;DHT22;9741;51.020;5.304;2022-07-29T00:52:37;17.50;60.90
19214;DHT22;9741;51.020;5.304;2022-07-29T00:55:05;17.30;61.20
19214;DHT22;9741;51.020;5.304;2022-07-29T00:57:33;17.20;61.60
19214;DHT22;9741;51.020;5.304;2022-07-29T01:00:00;17.10;62.50
19214;DHT22;9741;51.020;5.304;2022-07-29T01:02:27;16.90;62.20
19214;DHT22;9741;51.020;5.304;2022-07-29T01:04:54;16.90;62.70
19214;DHT22;9741;51.020;5.304;2022-07-29T01:07:25;16.80;62.90
19214;DHT22;9741;51.020;5.304;2022-07-29T01:09:53;16.70;63.00
19214;DHT22;9741;51.020;5.304;2022-07-29T01:12:24;16.60;63.20
19214;DHT22;9741;51.020;5.304;2022-07-29T01:14:53;16.40;63.40
19214;DHT22;9741;51.020;5.304;2022-07-29T01:17:24;16.30;63.70
19214;DHT22;9741;51.020;5.304;2022-07-29T01:19:58;16.30;64.00
19214;DHT22;9741;51.020;5.304;2022-07-29T01:22:47;16.20;64.30
19214;DHT22;9741;51.020;5.304;2022-07-29T01:25:39;16.20;64.70
19214;DHT22;9741;51.020;5.304;2022-07-29T01:28:44;16.20;65.00
19214;DHT22;9741;51.020;5.304;2022-07-29T01:31:24;16.20;65.30
19214;DHT22;9741;51.020;5.304;2022-07-29T01:33:57;16.10;65.50
19214;DHT22;9741;51.020;5.304;2022-07-29T01:36:30;16.10;65.70
19214;DHT22;9741;51.020;5.304;2022-07-29T01:39:05;16.10;65.80
19214;DHT22;9741;51.020;5.304;2022-07-29T01:41:35;16.10;66.10
19214;DHT22;9741;51.020;5.304;2022-07-29T01:44:12;16.10;66.20
19214;DHT22;9741;51.020;5.304;2022-07-29T01:46:45;16.10;66.50
19214;DHT22;9741;51.020;5.304;2022-07-29T01:49:18;16.10;66.70
19214;DHT22;9741;51.020;5.304;2022-07-29T01:51:50;16.10;66.90
19214;DHT22;9741;51.020;5.304;2022-07-29T01:54:24;16.10;67.10
19214;DHT22;9741;51.020;5.304;2022-07-29T01:56:55;16.20;67.50
19214;DHT22;9741;51.020;5.304;2022-07-29T01:59:25;16.20;67.60
19214;DHT22;9741;51.020;5.304;2022-07-29T02:01:54;16.30;67.80
19214;DHT22;9741;51.020;5.304;2022-07-29T02:04:23;16.40;67.90
19214;DHT22;9741;51.020;5.304;2022-07-29T02:06:52;16.40;68.50
19214;DHT22;9741;51.020;5.304;2022-07-29T02:09:21;16.40;67.90
19214;DHT22;9741;51.020;5.304;2022-07-29T02:11:52;16.40;68.00
19214;DHT22;9741;51.020;5.304;2022-07-29T02:14:24;16.40;68.10
19214;DHT22;9741;51.020;5.304;2022-07-29T02:16:53;16.40;68.30
19214;DHT22;9741;51.020;5.304;2022-07-29T02:19:22;16.40;68.50
19214;DHT22;9741;51.020;5.304;2022-07-29T02:21:52;16.40;68.70
19214;DHT22;9741;51.020;5.304;2022-07-29T02:24:21;16.40;68.80
19214;DHT22;9741;51.020;5.304;2022-07-29T02:26:50;16.50;68.90
19214;DHT22;9741;51.020;5.304;2022-07-29T02:29:20;16.50;69.00
19214;DHT22;9741;51.020;5.304;2022-07-29T02:31:49;16.50;69.10
19214;DHT22;9741;51.020;5.304;2022-07-29T02:34:18;16.50;69.10
19214;DHT22;9741;51.020;5.304;2022-07-29T02:36:47;16.50;69.10
19214;DHT22;9741;51.020;5.304;2022-07-29T02:39:15;16.50;69.20
19214;DHT22;9741;51.020;5.304;2022-07-29T02:41:45;16.50;69.30
19214;DHT22;9741;51.020;5.304;2022-07-29T02:44:15;16.50;69.30
19214;DHT22;9741;51.020;5.304;2022-07-29T02:46:47;16.50;69.50
19214;DHT22;9741;51.020;5.304;2022-07-29T02:49:28;16.40;69.30
19214;DHT22;9741;51.020;5.304;2022-07-29T02:51:59;16.30;69.40
19214;DHT22;9741;51.020;5.304;2022-07-29T02:54:41;16.30;69.50
19214;DHT22;9741;51.020;5.304;2022-07-29T02:57:14;16.30;70.30
19214;DHT22;9741;51.020;5.304;2022-07-29T02:59:47;16.30;69.90
19214;DHT22;9741;51.020;5.304;2022-07-29T03:02:16;16.20;70.00
19214;DHT22;9741;51.020;5.304;2022-07-29T03:04:46;16.20;70.10
19214;DHT22;9741;51.020;5.304;2022-07-29T03:07:15;16.30;70.30
19214;DHT22;9741;51.020;5.304;2022-07-29T03:09:46;16.20;70.30
19214;DHT22;9741;51.020;5.304;2022-07-29T03:12:14;16.20;70.40
19214;DHT22;9741;51.020;5.304;2022-07-29T03:14:42;16.30;70.50
19214;DHT22;9741;51.020;5.304;2022-07-29T03:17:10;16.30;70.60
19214;DHT22;9741;51.020;5.304;2022-07-29T03:19:38;16.30;70.60
19214;DHT22;9741;51.020;5.304;2022-07-29T03:22:07;16.30;70.60
19214;DHT22;9741;51.020;5.304;2022-07-29T03:24:36;16.30;70.70
19214;DHT22;9741;51.020;5.304;2022-07-29T03:27:04;16.30;70.70
19214;DHT22;9741;51.020;5.304;2022-07-29T03:29:31;16.30;70.90
19214;DHT22;9741;51.020;5.304;2022-07-29T03:31:59;16.40;71.00
19214;DHT22;9741;51.020;5.304;2022-07-29T03:34:26;16.40;71.10
19214;DHT22;9741;51.020;5.304;2022-07-29T03:36:53;16.50;71.20
19214;DHT22;9741;51.020;5.304;2022-07-29T03:39:24;16.50;71.20
19214;DHT22;9741;51.020;5.304;2022-07-29T03:41:55;16.50;71.20
19214;DHT22;9741;51.020;5.304;2022-07-29T03:44:24;16.60;71.30
19214;DHT22;9741;51.020;5.304;2022-07-29T03:46:54;16.60;71.30
19214;DHT22;9741;51.020;5.304;2022-07-29T03:49:23;16.70;71.30
19214;DHT22;9741;51.020;5.304;2022-07-29T03:51:51;16.70;71.30
19214;DHT22;9741;51.020;5.304;2022-07-29T03:54:18;16.80;71.40
19214;DHT22;9741;51.020;5.304;2022-07-29T03:56:48;16.80;71.30
19214;DHT22;9741;51.020;5.304;2022-07-29T03:59:17;16.80;71.90
19214;DHT22;9741;51.020;5.304;2022-07-29T04:01:46;16.80;71.40
19214;DHT22;9741;51.020;5.304;2022-07-29T04:04:14;16.80;71.40
19214;DHT22;9741;51.020;5.304;2022-07-29T04:06:43;16.80;71.40
19214;DHT22;9741;51.020;5.304;2022-07-29T04:09:10;16.80;71.40
19214;DHT22;9741;51.020;5.304;2022-07-29T04:11:40;16.80;71.40
19214;DHT22;9741;51.020;5.304;2022-07-29T04:14:08;16.90;71.60
19214;DHT22;9741;51.020;5.304;2022-07-29T04:16:35;16.90;71.60
19214;DHT22;9741;51.020;5.304;2022-07-29T04:19:02;16.90;71.40
19214;DHT22;9741;51.020;5.304;2022-07-29T04:21:30;16.80;71.20
19214;DHT22;9741;51.020;5.304;2022-07-29T04:23:57;16.80;71.30
19214;DHT22;9741;51.020;5.304;2022-07-29T04:26:24;16.80;71.50
19214;DHT22;9741;51.020;5.304;2022-07-29T04:28:51;16.80;71.70
19214;DHT22;9741;51.020;5.304;2022-07-29T04:31:19;16.80;71.70
19214;DHT22;9741;51.020;5.304;2022-07-29T04:33:46;16.80;71.70
19214;DHT22;9741;51.020;5.304;2022-07-29T04:36:13;16.80;71.70
19214;DHT22;9741;51.020;5.304;2022-07-29T04:38:40;16.90;71.80
19214;DHT22;9741;51.020;5.304;2022-07-29T04:41:07;16.90;71.80
19214;DHT22;9741;51.020;5.304;2022-07-29T04:43:35;16.90;71.90
19214;DHT22;9741;51.020;5.304;2022-07-29T04:46:03;17.00;72.00
19214;DHT22;9741;51.020;5.304;2022-07-29T04:48:31;17.00;72.00
19214;DHT22;9741;51.020;5.304;2022-07-29T04:50:59;17.00;72.00
19214;DHT22;9741;51.020;5.304;2022-07-29T04:53:26;17.00;72.00
19214;DHT22;9741;51.020;5.304;2022-07-29T04:55:53;17.00;71.90
19214;DHT22;9741;51.020;5.304;2022-07-29T04:58:20;17.10;72.00
19214;DHT22;9741;51.020;5.304;2022-07-29T05:00:48;17.10;72.00
19214;DHT22;9741;51.020;5.304;2022-07-29T05:03:15;17.10;72.00
19214;DHT22;9741;51.020;5.304;2022-07-29T05:05:44;17.10;72.00
19214;DHT22;9741;51.020;5.304;2022-07-29T05:08:11;17.10;72.00
19214;DHT22;9741;51.020;5.304;2022-07-29T05:10:38;17.10;72.00
19214;DHT22;9741;51.020;5.304;2022-07-29T05:13:05;17.10;72.00
19214;DHT22;9741;51.020;5.304;2022-07-29T05:15:34;17.10;72.00
19214;DHT22;9741;51.020;5.304;2022-07-29T05:18:01;17.20;72.00
19214;DHT22;9741;51.020;5.304;2022-07-29T05:20:30;17.10;71.90
19214;DHT22;9741;51.020;5.304;2022-07-29T05:23:00;17.20;72.00
19214;DHT22;9741;51.020;5.304;2022-07-29T05:25:28;17.20;72.00
19214;DHT22;9741;51.020;5.304;2022-07-29T05:27:56;17.20;72.10
19214;DHT22;9741;51.020;5.304;2022-07-29T05:30:23;17.20;72.10
19214;DHT22;9741;51.020;5.304;2022-07-29T05:32:50;17.20;72.00
19214;DHT22;9741;51.020;5.304;2022-07-29T05:35:18;17.20;72.00
19214;DHT22;9741;51.020;5.304;2022-07-29T05:37:45;17.20;72.20
19214;DHT22;9741;51.020;5.304;2022-07-29T05:40:13;17.30;72.40
19214;DHT22;9741;51.020;5.304;2022-07-29T05:42:40;17.40;72.50
19214;DHT22;9741;51.020;5.304;2022-07-29T05:45:09;17.40;72.60
19214;DHT22;9741;51.020;5.304;2022-07-29T05:47:36;17.50;72.70
19214;DHT22;9741;51.020;5.304;2022-07-29T05:50:04;17.60;72.80
19214;DHT22;9741;51.020;5.304;2022-07-29T05:52:31;17.70;72.80
19214;DHT22;9741;51.020;5.304;2022-07-29T05:54:58;17.80;72.80
19214;DHT22;9741;51.020;5.304;2022-07-29T05:57:29;17.90;72.80
19214;DHT22;9741;51.020;5.304;2022-07-29T05:59:57;18.00;72.90
19214;DHT22;9741;51.020;5.304;2022-07-29T06:02:24;18.10;73.00
19214;DHT22;9741;51.020;5.304;2022-07-29T06:04:51;18.30;73.10
19214;DHT22;9741;51.020;5.304;2022-07-29T06:07:18;18.50;73.20
19214;DHT22;9741;51.020;5.304;2022-07-29T06:09:45;18.80;73.20
19214;DHT22;9741;51.020;5.304;2022-07-29T06:12:12;19.20;72.90
19214;DHT22;9741;51.020;5.304;2022-07-29T06:14:41;19.60;72.50
19214;DHT22;9741;51.020;5.304;2022-07-29T06:17:08;20.10;72.20
19214;DHT22;9741;51.020;5.304;2022-07-29T06:19:37;20.50;72.10
19214;DHT22;9741;51.020;5.304;2022-07-29T06:22:04;21.10;72.10
19214;DHT22;9741;51.020;5.304;2022-07-29T06:24:35;21.60;72.10
19214;DHT22;9741;51.020;5.304;2022-07-29T06:27:03;22.10;72.00
19214;DHT22;9741;51.020;5.304;2022-07-29T06:29:30;22.60;72.10
19214;DHT22;9741;51.020;5.304;2022-07-29T06:31:58;23.20;72.20
19214;DHT22;9741;51.020;5.304;2022-07-29T06:34:25;23.60;71.70
19214;DHT22;9741;51.020;5.304;2022-07-29T06:36:52;23.80;70.70
19214;DHT22;9741;51.020;5.304;2022-07-29T06:39:20;23.80;69.70
19214;DHT22;9741;51.020;5.304;2022-07-29T06:41:48;23.60;68.90
19214;DHT22;9741;51.020;5.304;2022-07-29T06:44:16;23.30;68.80
19214;DHT22;9741;51.020;5.304;2022-07-29T06:46:44;23.20;69.50
19214;DHT22;9741;51.020;5.304;2022-07-29T06:49:14;23.30;70.00
19214;DHT22;9741;51.020;5.304;2022-07-29T06:51:41;23.40;70.90
19214;DHT22;9741;51.020;5.304;2022-07-29T06:54:08;23.60;70.50
19214;DHT22;9741;51.020;5.304;2022-07-29T06:56:35;23.80;70.20
19214;DHT22;9741;51.020;5.304;2022-07-29T06:59:04;23.80;69.30
19214;DHT22;9741;51.020;5.304;2022-07-29T07:01:31;23.80;68.80
19214;DHT22;9741;51.020;5.304;2022-07-29T07:03:58;23.70;68.50
19214;DHT22;9741;51.020;5.304;2022-07-29T07:06:26;23.70;68.60
19214;DHT22;9741;51.020;5.304;2022-07-29T07:08:53;23.80;68.80
19214;DHT22;9741;51.020;5.304;2022-07-29T07:11:20;23.90;68.30
19214;DHT22;9741;51.020;5.304;2022-07-29T07:13:48;24.10;68.20
19214;DHT22;9741;51.020;5.304;2022-07-29T07:16:15;24.20;68.10
19214;DHT22;9741;51.020;5.304;2022-07-29T07:18:42;24.50;68.10
19214;DHT22;9741;51.020;5.304;2022-07-29T07:21:10;24.80;68.20
19214;DHT22;9741;51.020;5.304;2022-07-29T07:23:39;25.20;68.10
19214;DHT22;9741;51.020;5.304;2022-07-29T07:26:06;25.70;67.70
19214;DHT22;9741;51.020;5.304;2022-07-29T07:28:33;26.10;67.20
19214;DHT22;9741;51.020;5.304;2022-07-29T07:31:00;26.50;66.40
19214;DHT22;9741;51.020;5.304;2022-07-29T07:33:30;27.00;66.10
19214;DHT22;9741;51.020;5.304;2022-07-29T07:35:58;27.40;64.90
19214;DHT22;9741;51.020;5.304;2022-07-29T07:38:26;27.60;64.00
19214;DHT22;9741;51.020;5.304;2022-07-29T07:40:55;27.90;63.90
19214;DHT22;9741;51.020;5.304;2022-07-29T07:43:22;28.00;63.20
19214;DHT22;9741;51.020;5.304;2022-07-29T07:45:49;28.20;62.90
19214;DHT22;9741;51.020;5.304;2022-07-29T07:48:17;28.50;62.70
19214;DHT22;9741;51.020;5.304;2022-07-29T07:50:44;28.70;62.30
19214;DHT22;9741;51.020;5.304;2022-07-29T07:53:11;28.90;61.80
19214;DHT22;9741;51.020;5.304;2022-07-29T07:55:41;29.20;61.30
19214;DHT22;9741;51.020;5.304;2022-07-29T07:58:13;29.50;60.70
19214;DHT22;9741;51.020;5.304;2022-07-29T08:00:41;29.60;60.70
19214;DHT22;9741;51.020;5.304;2022-07-29T08:03:08;29.70;60.80
19214;DHT22;9741;51.020;5.304;2022-07-29T08:05:38;29.90;60.30
19214;DHT22;9741;51.020;5.304;2022-07-29T08:08:05;29.90;59.50
19214;DHT22;9741;51.020;5.304;2022-07-29T08:10:32;29.80;59.70
19214;DHT22;9741;51.020;5.304;2022-07-29T08:13:19;29.90;59.50
19214;DHT22;9741;51.020;5.304;2022-07-29T08:15:47;29.90;59.40
19214;DHT22;9741;51.020;5.304;2022-07-29T08:18:23;29.80;59.40
19214;DHT22;9741;51.020;5.304;2022-07-29T08:20:51;29.80;59.60
19214;DHT22;9741;51.020;5.304;2022-07-29T08:23:18;29.90;59.20
19214;DHT22;9741;51.020;5.304;2022-07-29T08:25:46;29.90;58.60
19214;DHT22;9741;51.020;5.304;2022-07-29T08:28:13;30.00;58.50
19214;DHT22;9741;51.020;5.304;2022-07-29T08:30:42;30.30;58.40
19214;DHT22;9741;51.020;5.304;2022-07-29T08:33:09;30.50;57.30
19214;DHT22;9741;51.020;5.304;2022-07-29T08:35:39;30.50;57.00
19214;DHT22;9741;51.020;5.304;2022-07-29T08:38:07;30.40;56.60
19214;DHT22;9741;51.020;5.304;2022-07-29T08:40:35;30.40;56.90
19214;DHT22;9741;51.020;5.304;2022-07-29T08:43:06;30.40;56.60
19214;DHT22;9741;51.020;5.304;2022-07-29T08:45:43;30.50;56.40
19214;DHT22;9741;51.020;5.304;2022-07-29T08:48:12;30.50;56.20
19214;DHT22;9741;51.020;5.304;2022-07-29T08:50:39;30.50;56.60
19214;DHT22;9741;51.020;5.304;2022-07-29T08:53:11;30.70;56.80
19214;DHT22;9741;51.020;5.304;2022-07-29T08:55:39;30.70;55.90
19214;DHT22;9741;51.020;5.304;2022-07-29T08:58:07;30.90;56.40
19214;DHT22;9741;51.020;5.304;2022-07-29T09:00:40;31.00;55.50
19214;DHT22;9741;51.020;5.304;2022-07-29T09:03:10;31.20;55.00
19214;DHT22;9741;51.020;5.304;2022-07-29T09:05:41;31.50;54.70
19214;DHT22;9741;51.020;5.304;2022-07-29T09:08:09;31.80;54.10
19214;DHT22;9741;51.020;5.304;2022-07-29T09:10:36;31.90;53.80
19214;DHT22;9741;51.020;5.304;2022-07-29T09:13:03;32.10;53.40
19214;DHT22;9741;51.020;5.304;2022-07-29T09:15:31;32.20;53.10
19214;DHT22;9741;51.020;5.304;2022-07-29T09:17:58;32.30;52.70
19214;DHT22;9741;51.020;5.304;2022-07-29T09:20:29;32.40;52.60
19214;DHT22;9741;51.020;5.304;2022-07-29T09:23:20;32.60;52.60
19214;DHT22;9741;51.020;5.304;2022-07-29T09:25:48;32.70;52.50
19214;DHT22;9741;51.020;5.304;2022-07-29T09:28:17;32.70;52.40
19214;DHT22;9741;51.020;5.304;2022-07-29T09:30:52;32.50;52.40
19214;DHT22;9741;51.020;5.304;2022-07-29T09:33:22;32.20;52.90
19214;DHT22;9741;51.020;5.304;2022-07-29T09:36:03;32.10;53.70
19214;DHT22;9741;51.020;5.304;2022-07-29T09:38:30;31.80;54.20
19214;DHT22;9741;51.020;5.304;2022-07-29T09:40:57;31.70;55.30
19214;DHT22;9741;51.020;5.304;2022-07-29T09:43:25;31.40;55.80
19214;DHT22;9741;51.020;5.304;2022-07-29T09:45:52;31.30;56.20
19214;DHT22;9741;51.020;5.304;2022-07-29T09:48:21;31.10;56.80
19214;DHT22;9741;51.020;5.304;2022-07-29T09:50:49;30.90;57.50
19214;DHT22;9741;51.020;5.304;2022-07-29T09:53:32;30.70;57.60
19214;DHT22;9741;51.020;5.304;2022-07-29T09:56:00;30.60;57.60
19214;DHT22;9741;51.020;5.304;2022-07-29T09:58:27;30.50;58.50
19214;DHT22;9741;51.020;5.304;2022-07-29T10:00:55;30.30;58.50
19214;DHT22;9741;51.020;5.304;2022-07-29T10:03:23;30.30;58.80
19214;DHT22;9741;51.020;5.304;2022-07-29T10:06:07;30.30;58.10
19214;DHT22;9741;51.020;5.304;2022-07-29T10:08:36;30.20;57.50
19214;DHT22;9741;51.020;5.304;2022-07-29T10:11:11;30.30;57.90
19214;DHT22;9741;51.020;5.304;2022-07-29T10:13:39;30.60;57.40
19214;DHT22;9741;51.020;5.304;2022-07-29T10:16:06;30.80;57.50
19214;DHT22;9741;51.020;5.304;2022-07-29T10:18:34;30.90;57.50
19214;DHT22;9741;51.020;5.304;2022-07-29T10:21:01;31.10;57.00
19214;DHT22;9741;51.020;5.304;2022-07-29T10:23:29;31.30;56.50
19214;DHT22;9741;51.020;5.304;2022-07-29T10:25:58;31.30;55.60
19214;DHT22;9741;51.020;5.304;2022-07-29T10:28:25;31.30;54.90
19214;DHT22;9741;51.020;5.304;2022-07-29T10:31:00;31.20;54.80
19214;DHT22;9741;51.020;5.304;2022-07-29T10:33:40;31.10;54.60
19214;DHT22;9741;51.020;5.304;2022-07-29T10:36:24;30.90;54.90
19214;DHT22;9741;51.020;5.304;2022-07-29T10:39:00;30.80;54.30
19214;DHT22;9741;51.020;5.304;2022-07-29T10:41:43;30.60;54.00
19214;DHT22;9741;51.020;5.304;2022-07-29T10:44:17;30.50;54.10
19214;DHT22;9741;51.020;5.304;2022-07-29T10:46:45;30.40;54.10
19214;DHT22;9741;51.020;5.304;2022-07-29T10:49:13;30.20;53.80
19214;DHT22;9741;51.020;5.304;2022-07-29T10:51:57;30.10;53.60
19214;DHT22;9741;51.020;5.304;2022-07-29T10:54:42;30.00;52.80
19214;DHT22;9741;51.020;5.304;2022-07-29T10:57:15;29.80;53.20
19214;DHT22;9741;51.020;5.304;2022-07-29T10:59:43;29.70;53.60
19214;DHT22;9741;51.020;5.304;2022-07-29T11:02:45;29.60;53.60
19214;DHT22;9741;51.020;5.304;2022-07-29T11:05:17;29.50;53.50
19214;DHT22;9741;51.020;5.304;2022-07-29T11:08:19;29.30;53.50
19214;DHT22;9741;51.020;5.304;2022-07-29T11:13:53;29.00;54.20
19214;DHT22;9741;51.020;5.304;2022-07-29T11:16:22;29.10;54.30
19214;DHT22;9741;51.020;5.304;2022-07-29T11:19:20;29.10;54.30
19214;DHT22;9741;51.020;5.304;2022-07-29T11:21:48;29.20;53.90
19214;DHT22;9741;51.020;5.304;2022-07-29T11:24:19;29.30;53.90
19214;DHT22;9741;51.020;5.304;2022-07-29T11:27:10;29.30;53.60
19214;DHT22;9741;51.020;5.304;2022-07-29T11:29:47;29.30;52.80
19214;DHT22;9741;51.020;5.304;2022-07-29T11:32:17;29.30;52.80
19214;DHT22;9741;51.020;5.304;2022-07-29T11:34:46;29.30;52.90
19214;DHT22;9741;51.020;5.304;2022-07-29T11:37:15;29.30;52.70
19214;DHT22;9741;51.020;5.304;2022-07-29T11:39:44;29.30;52.50
19214;DHT22;9741;51.020;5.304;2022-07-29T11:42:40;29.30;52.30
19214;DHT22;9741;51.020;5.304;2022-07-29T11:45:10;29.30;51.90
19214;DHT22;9741;51.020;5.304;2022-07-29T11:47:40;29.20;51.50
19214;DHT22;9741;51.020;5.304;2022-07-29T11:50:10;29.10;51.40
19214;DHT22;9741;51.020;5.304;2022-07-29T11:52:39;29.00;51.10
19214;DHT22;9741;51.020;5.304;2022-07-29T11:55:12;28.90;50.90
19214;DHT22;9741;51.020;5.304;2022-07-29T11:57:46;28.90;51.20
19214;DHT22;9741;51.020;5.304;2022-07-29T12:00:24;28.90;51.00
19214;DHT22;9741;51.020;5.304;2022-07-29T12:02:51;28.90;50.50
19214;DHT22;9741;51.020;5.304;2022-07-29T12:05:20;28.90;50.90
19214;DHT22;9741;51.020;5.304;2022-07-29T12:07:48;28.90;50.50
19214;DHT22;9741;51.020;5.304;2022-07-29T12:10:15;29.00;50.10
19214;DHT22;9741;51.020;5.304;2022-07-29T12:12:51;29.00;49.80
19214;DHT22;9741;51.020;5.304;2022-07-29T12:15:22;29.00;49.10
19214;DHT22;9741;51.020;5.304;2022-07-29T12:17:51;29.00;49.00
19214;DHT22;9741;51.020;5.304;2022-07-29T12:20:23;28.90;49.20
19214;DHT22;9741;51.020;5.304;2022-07-29T12:22:53;29.00;49.40
19214;DHT22;9741;51.020;5.304;2022-07-29T12:25:21;28.90;49.20
19214;DHT22;9741;51.020;5.304;2022-07-29T12:27:58;28.90;49.00
19214;DHT22;9741;51.020;5.304;2022-07-29T12:30:37;28.80;48.80
19214;DHT22;9741;51.020;5.304;2022-07-29T12:33:14;28.70;48.60
19214;DHT22;9741;51.020;5.304;2022-07-29T12:35:42;28.60;48.50
19214;DHT22;9741;51.020;5.304;2022-07-29T12:38:11;28.50;48.60
19214;DHT22;9741;51.020;5.304;2022-07-29T12:40:38;28.40;48.40
19214;DHT22;9741;51.020;5.304;2022-07-29T12:43:14;28.30;48.70
19214;DHT22;9741;51.020;5.304;2022-07-29T12:45:51;28.40;48.70
19214;DHT22;9741;51.020;5.304;2022-07-29T12:48:33;28.40;49.10
19214;DHT22;9741;51.020;5.304;2022-07-29T12:51:01;28.60;48.80
19214;DHT22;9741;51.020;5.304;2022-07-29T12:53:30;28.70;48.90
19214;DHT22;9741;51.020;5.304;2022-07-29T12:55:58;28.90;48.80
19214;DHT22;9741;51.020;5.304;2022-07-29T12:58:29;29.10;48.80
19214;DHT22;9741;51.020;5.304;2022-07-29T13:01:07;29.20;48.60
19214;DHT22;9741;51.020;5.304;2022-07-29T13:03:47;29.40;48.60
19214;DHT22;9741;51.020;5.304;2022-07-29T13:06:31;29.50;48.10
19214;DHT22;9741;51.020;5.304;2022-07-29T13:09:03;29.60;47.60
19214;DHT22;9741;51.020;5.304;2022-07-29T13:11:32;29.60;47.80
19214;DHT22;9741;51.020;5.304;2022-07-29T13:14:00;29.50;47.40
19214;DHT22;9741;51.020;5.304;2022-07-29T13:16:29;29.50;47.30
19214;DHT22;9741;51.020;5.304;2022-07-29T13:19:05;29.50;47.20
19214;DHT22;9741;51.020;5.304;2022-07-29T13:21:33;29.50;47.00
19214;DHT22;9741;51.020;5.304;2022-07-29T13:24:01;29.50;47.00
19214;DHT22;9741;51.020;5.304;2022-07-29T13:26:31;29.50;46.60
19214;DHT22;9741;51.020;5.304;2022-07-29T13:29:00;29.50;46.50
19214;DHT22;9741;51.020;5.304;2022-07-29T13:31:30;29.60;46.20
19214;DHT22;9741;51.020;5.304;2022-07-29T13:33:57;29.70;46.20
19214;DHT22;9741;51.020;5.304;2022-07-29T13:36:25;29.70;46.20
19214;DHT22;9741;51.020;5.304;2022-07-29T13:38:53;29.70;46.00
19214;DHT22;9741;51.020;5.304;2022-07-29T13:41:21;29.70;45.70
19214;DHT22;9741;51.020;5.304;2022-07-29T13:43:49;29.60;45.60
19214;DHT22;9741;51.020;5.304;2022-07-29T13:46:17;29.50;45.30
19214;DHT22;9741;51.020;5.304;2022-07-29T13:48:46;29.40;45.00
19214;DHT22;9741;51.020;5.304;2022-07-29T13:51:13;29.20;44.50
19214;DHT22;9741;51.020;5.304;2022-07-29T13:53:41;29.10;44.80
19214;DHT22;9741;51.020;5.304;2022-07-29T13:56:09;28.90;44.70
19214;DHT22;9741;51.020;5.304;2022-07-29T13:58:37;28.80;44.80
19214;DHT22;9741;51.020;5.304;2022-07-29T14:01:05;28.80;44.80
19214;DHT22;9741;51.020;5.304;2022-07-29T14:03:35;28.70;44.70
19214;DHT22;9741;51.020;5.304;2022-07-29T14:06:07;28.70;44.90
19214;DHT22;9741;51.020;5.304;2022-07-29T14:08:35;28.70;45.00
19214;DHT22;9741;51.020;5.304;2022-07-29T14:11:02;28.70;45.10
19214;DHT22;9741;51.020;5.304;2022-07-29T14:13:29;28.70;45.20
19214;DHT22;9741;51.020;5.304;2022-07-29T14:15:57;28.70;45.20
19214;DHT22;9741;51.020;5.304;2022-07-29T14:18:24;28.70;45.00
19214;DHT22;9741;51.020;5.304;2022-07-29T14:20:51;28.70;44.70
19214;DHT22;9741;51.020;5.304;2022-07-29T14:23:20;28.70;44.70
19214;DHT22;9741;51.020;5.304;2022-07-29T14:25:47;28.70;44.30
19214;DHT22;9741;51.020;5.304;2022-07-29T14:28:14;28.80;44.50
19214;DHT22;9741;51.020;5.304;2022-07-29T14:30:41;28.80;44.60
19214;DHT22;9741;51.020;5.304;2022-07-29T14:33:09;28.90;44.40
19214;DHT22;9741;51.020;5.304;2022-07-29T14:35:37;29.00;44.20
19214;DHT22;9741;51.020;5.304;2022-07-29T14:38:04;29.00;43.60
19214;DHT22;9741;51.020;5.304;2022-07-29T14:40:34;29.00;43.50
19214;DHT22;9741;51.020;5.304;2022-07-29T14:43:02;29.10;43.40
19214;DHT22;9741;51.020;5.304;2022-07-29T14:45:29;29.10;43.60
19214;DHT22;9741;51.020;5.304;2022-07-29T14:47:58;29.20;43.30
19214;DHT22;9741;51.020;5.304;2022-07-29T14:50:26;29.20;43.10
19214;DHT22;9741;51.020;5.304;2022-07-29T14:52:54;29.30;43.00
19214;DHT22;9741;51.020;5.304;2022-07-29T14:55:22;29.30;42.80
19214;DHT22;9741;51.020;5.304;2022-07-29T14:57:51;29.30;42.70
19214;DHT22;9741;51.020;5.304;2022-07-29T15:00:19;29.20;42.70
19214;DHT22;9741;51.020;5.304;2022-07-29T15:02:46;29.20;42.40
19214;DHT22;9741;51.020;5.304;2022-07-29T15:05:14;29.20;42.00
19214;DHT22;9741;51.020;5.304;2022-07-29T15:07:41;29.20;41.80
19214;DHT22;9741;51.020;5.304;2022-07-29T15:10:09;29.20;41.90
19214;DHT22;9741;51.020;5.304;2022-07-29T15:12:37;29.20;41.30
19214;DHT22;9741;51.020;5.304;2022-07-29T15:15:06;29.30;41.20
19214;DHT22;9741;51.020;5.304;2022-07-29T15:17:34;29.30;41.00
19214;DHT22;9741;51.020;5.304;2022-07-29T15:20:01;29.30;41.10
19214;DHT22;9741;51.020;5.304;2022-07-29T15:22:29;29.40;41.30
19214;DHT22;9741;51.020;5.304;2022-07-29T15:24:56;29.50;41.50
19214;DHT22;9741;51.020;5.304;2022-07-29T15:27:24;29.50;41.40
19214;DHT22;9741;51.020;5.304;2022-07-29T15:29:52;29.50;41.10
19214;DHT22;9741;51.020;5.304;2022-07-29T15:32:21;29.60;40.90
19214;DHT22;9741;51.020;5.304;2022-07-29T15:34:48;29.60;40.50
19214;DHT22;9741;51.020;5.304;2022-07-29T15:37:16;29.60;40.50
19214;DHT22;9741;51.020;5.304;2022-07-29T15:39:43;29.60;40.60
19214;DHT22;9741;51.020;5.304;2022-07-29T15:42:11;29.60;40.40
19214;DHT22;9741;51.020;5.304;2022-07-29T15:44:38;29.60;40.70
19214;DHT22;9741;51.020;5.304;2022-07-29T15:47:06;29.60;40.40
19214;DHT22;9741;51.020;5.304;2022-07-29T15:49:36;29.50;40.20
19214;DHT22;9741;51.020;5.304;2022-07-29T15:52:05;29.50;40.20
19214;DHT22;9741;51.020;5.304;2022-07-29T15:54:33;29.40;40.10
19214;DHT22;9741;51.020;5.304;2022-07-29T15:57:01;29.30;40.00
19214;DHT22;9741;51.020;5.304;2022-07-29T15:59:28;29.30;39.90
19214;DHT22;9741;51.020;5.304;2022-07-29T16:01:55;29.20;39.80
19214;DHT22;9741;51.020;5.304;2022-07-29T16:04:23;29.20;40.10